sensor_id;sensor_type;location;lat;lon;timestamp;temperature;humidity
53962;DHT22;39868;53.398;6.564;2023-01-31T00:01:49;7.60;77.10
53962;DHT22;39868;53.398;6.564;2023-01-31T00:04:16;7.60;77.20
53962;DHT22;39868;53.398;6.564;2023-01-31T00:06:43;7.60;77.20
53962;DHT22;39868;53.398;6.564;2023-01-31T00:09:17;7.60;77.30
53962;DHT22;39868;53.398;6.564;2023-01-31T00:11:45;7.60;77.30
53962;DHT22;39868;53.398;6.564;2023-01-31T00:14:18;7.50;77.30
53962;DHT22;39868;53.398;6.564;2023-01-31T00:16:46;7.50;77.30
53962;DHT22;39868;53.398;6.564;2023-01-31T00:19:14;7.50;77.40
53962;DHT22;39868;53.398;6.564;2023-01-31T00:21:41;7.50;77.40
53962;DHT22;39868;53.398;6.564;2023-01-31T00:24:13;7.50;77.40
53962;DHT22;39868;53.398;6.564;2023-01-31T00:26:40;7.50;77.40
53962;DHT22;39868;53.398;6.564;2023-01-31T00:29:08;7.40;77.40
53962;DHT22;39868;53.398;6.564;2023-01-31T00:31:36;7.40;77.40
53962;DHT22;39868;53.398;6.564;2023-01-31T00:34:04;7.40;77.40
53962;DHT22;39868;53.398;6.564;2023-01-31T00:36:33;7.40;77.40
53962;DHT22;39868;53.398;6.564;2023-01-31T00:39:03;7.40;77.40
53962;DHT22;39868;53.398;6.564;2023-01-31T00:41:31;7.40;77.40
53962;DHT22;39868;53.398;6.564;2023-01-31T00:43:59;7.40;77.40
53962;DHT22;39868;53.398;6.564;2023-01-31T00:46:27;7.40;77.50
53962;DHT22;39868;53.398;6.564;2023-01-31T00:48:55;7.30;77.50
53962;DHT22;39868;53.398;6.564;2023-01-31T00:51:24;7.40;77.70
53962;DHT22;39868;53.398;6.564;2023-01-31T00:53:53;7.40;77.80
53962;DHT22;39868;53.398;6.564;2023-01-31T00:56:22;7.40;77.80
53962;DHT22;39868;53.398;6.564;2023-01-31T00:58:50;7.40;77.80
53962;DHT22;39868;53.398;6.564;2023-01-31T01:01:21;7.40;77.70
53962;DHT22;39868;53.398;6.564;2023-01-31T01:03:50;7.40;77.70
53962;DHT22;39868;53.398;6.564;2023-01-31T01:06:19;7.40;77.60
53962;DHT22;39868;53.398;6.564;2023-01-31T01:08:46;7.40;77.60
53962;DHT22;39868;53.398;6.564;2023-01-31T01:11:20;7.40;77.50
53962;DHT22;39868;53.398;6.564;2023-01-31T01:13:48;7.40;77.50
53962;DHT22;39868;53.398;6.564;2023-01-31T01:16:21;7.40;77.40
53962;DHT22;39868;53.398;6.564;2023-01-31T01:18:49;7.40;77.40
53962;DHT22;39868;53.398;6.564;2023-01-31T01:21:28;7.40;77.40
53962;DHT22;39868;53.398;6.564;2023-01-31T01:24:00;7.40;77.40
53962;DHT22;39868;53.398;6.564;2023-01-31T01:26:31;7.30;77.30
53962;DHT22;39868;53.398;6.564;2023-01-31T01:29:00;7.30;77.30
53962;DHT22;39868;53.398;6.564;2023-01-31T01:31:30;7.30;77.40
53962;DHT22;39868;53.398;6.564;2023-01-31T01:34:11;7.30;77.40
53962;DHT22;39868;53.398;6.564;2023-01-31T01:36:39;7.20;77.40
53962;DHT22;39868;53.398;6.564;2023-01-31T01:39:09;7.20;77.40
53962;DHT22;39868;53.398;6.564;2023-01-31T01:41:38;7.20;77.50
53962;DHT22;39868;53.398;6.564;2023-01-31T01:44:43;7.20;77.50
53962;DHT22;39868;53.398;6.564;2023-01-31T01:47:19;7.20;77.60
53962;DHT22;39868;53.398;6.564;2023-01-31T01:49:51;7.20;77.60
53962;DHT22;39868;53.398;6.564;2023-01-31T01:52:19;7.20;77.70
53962;DHT22;39868;53.398;6.564;2023-01-31T01:54:54;7.20;77.70
53962;DHT22;39868;53.398;6.564;2023-01-31T01:57:27;7.20;77.80
53962;DHT22;39868;53.398;6.564;2023-01-31T02:00:13;7.20;77.90
53962;DHT22;39868;53.398;6.564;2023-01-31T02:02:43;7.20;78.00
53962;DHT22;39868;53.398;6.564;2023-01-31T02:05:15;7.20;78.10
53962;DHT22;39868;53.398;6.564;2023-01-31T02:07:44;7.20;78.10
53962;DHT22;39868;53.398;6.564;2023-01-31T02:12:44;7.20;78.10
53962;DHT22;39868;53.398;6.564;2023-01-31T02:15:12;7.30;78.20
53962;DHT22;39868;53.398;6.564;2023-01-31T02:17:39;7.30;78.20
53962;DHT22;39868;53.398;6.564;2023-01-31T02:28:41;7.30;78.20
53962;DHT22;39868;53.398;6.564;2023-01-31T02:37:22;7.40;78.30
53962;DHT22;39868;53.398;6.564;2023-01-31T02:46:07;7.40;78.30
53962;DHT22;39868;53.398;6.564;2023-01-31T02:48:56;7.40;78.40
53962;DHT22;39868;53.398;6.564;2023-01-31T02:51:30;7.40;78.40
53962;DHT22;39868;53.398;6.564;2023-01-31T02:54:01;7.40;78.40
53962;DHT22;39868;53.398;6.564;2023-01-31T02:56:33;7.40;78.50
53962;DHT22;39868;53.398;6.564;2023-01-31T02:59:23;7.40;78.50
53962;DHT22;39868;53.398;6.564;2023-01-31T03:01:58;7.40;78.50
53962;DHT22;39868;53.398;6.564;2023-01-31T03:04:31;7.40;78.60
53962;DHT22;39868;53.398;6.564;2023-01-31T03:07:11;7.40;78.60
53962;DHT22;39868;53.398;6.564;2023-01-31T03:15:34;7.50;78.90
53962;DHT22;39868;53.398;6.564;2023-01-31T03:18:27;7.50;78.90
53962;DHT22;39868;53.398;6.564;2023-01-31T03:21:20;7.50;78.90
53962;DHT22;39868;53.398;6.564;2023-01-31T03:23:53;7.50;79.00
53962;DHT22;39868;53.398;6.564;2023-01-31T03:26:22;7.50;79.00
53962;DHT22;39868;53.398;6.564;2023-01-31T03:28:52;7.50;79.00
53962;DHT22;39868;53.398;6.564;2023-01-31T03:31:28;7.50;79.00
53962;DHT22;39868;53.398;6.564;2023-01-31T03:34:02;7.60;79.00
53962;DHT22;39868;53.398;6.564;2023-01-31T03:37:08;7.60;79.00
53962;DHT22;39868;53.398;6.564;2023-01-31T03:42:46;7.60;79.00
53962;DHT22;39868;53.398;6.564;2023-01-31T03:48:10;7.60;79.00
53962;DHT22;39868;53.398;6.564;2023-01-31T03:50:48;7.50;79.10
53962;DHT22;39868;53.398;6.564;2023-01-31T03:53:28;7.50;79.20
53962;DHT22;39868;53.398;6.564;2023-01-31T03:58:44;7.60;79.40
53962;DHT22;39868;53.398;6.564;2023-01-31T04:01:14;7.60;79.50
53962;DHT22;39868;53.398;6.564;2023-01-31T04:03:51;7.60;79.50
53962;DHT22;39868;53.398;6.564;2023-01-31T04:06:20;7.60;79.60
53962;DHT22;39868;53.398;6.564;2023-01-31T04:08:47;7.60;79.60
53962;DHT22;39868;53.398;6.564;2023-01-31T04:11:15;7.60;79.60
53962;DHT22;39868;53.398;6.564;2023-01-31T04:13:46;7.60;79.70
53962;DHT22;39868;53.398;6.564;2023-01-31T04:16:13;7.70;79.90
53962;DHT22;39868;53.398;6.564;2023-01-31T04:18:41;7.70;79.90
53962;DHT22;39868;53.398;6.564;2023-01-31T04:21:08;7.70;79.90
53962;DHT22;39868;53.398;6.564;2023-01-31T04:23:36;7.70;80.00
53962;DHT22;39868;53.398;6.564;2023-01-31T04:26:03;7.70;80.00
53962;DHT22;39868;53.398;6.564;2023-01-31T04:28:31;7.80;80.10
53962;DHT22;39868;53.398;6.564;2023-01-31T04:30:59;7.80;80.10
53962;DHT22;39868;53.398;6.564;2023-01-31T04:33:26;7.80;80.10
53962;DHT22;39868;53.398;6.564;2023-01-31T04:35:53;7.80;80.10
53962;DHT22;39868;53.398;6.564;2023-01-31T04:38:21;7.80;80.10
53962;DHT22;39868;53.398;6.564;2023-01-31T04:40:48;7.80;80.20
53962;DHT22;39868;53.398;6.564;2023-01-31T04:43:15;7.80;80.20
53962;DHT22;39868;53.398;6.564;2023-01-31T04:45:43;7.80;80.20
53962;DHT22;39868;53.398;6.564;2023-01-31T04:48:10;7.90;80.30
53962;DHT22;39868;53.398;6.564;2023-01-31T04:50:38;7.90;80.50
53962;DHT22;39868;53.398;6.564;2023-01-31T04:53:05;7.90;80.30
53962;DHT22;39868;53.398;6.564;2023-01-31T04:55:35;7.90;80.40
53962;DHT22;39868;53.398;6.564;2023-01-31T04:58:02;7.90;81.00
53962;DHT22;39868;53.398;6.564;2023-01-31T05:00:32;7.90;80.50
53962;DHT22;39868;53.398;6.564;2023-01-31T05:03:00;8.00;80.60
53962;DHT22;39868;53.398;6.564;2023-01-31T05:05:29;8.00;80.60
53962;DHT22;39868;53.398;6.564;2023-01-31T05:07:57;8.00;80.70
53962;DHT22;39868;53.398;6.564;2023-01-31T05:10:24;8.00;80.70
53962;DHT22;39868;53.398;6.564;2023-01-31T05:12:51;8.10;80.70
53962;DHT22;39868;53.398;6.564;2023-01-31T05:15:19;8.10;80.70
53962;DHT22;39868;53.398;6.564;2023-01-31T05:17:52;8.10;80.70
53962;DHT22;39868;53.398;6.564;2023-01-31T05:20:20;8.10;80.70
53962;DHT22;39868;53.398;6.564;2023-01-31T05:22:47;8.20;80.70
53962;DHT22;39868;53.398;6.564;2023-01-31T05:25:15;8.20;80.80
53962;DHT22;39868;53.398;6.564;2023-01-31T05:27:43;8.20;81.00
53962;DHT22;39868;53.398;6.564;2023-01-31T05:30:11;8.20;81.20
53962;DHT22;39868;53.398;6.564;2023-01-31T05:32:38;8.20;81.10
53962;DHT22;39868;53.398;6.564;2023-01-31T05:35:07;8.30;81.30
53962;DHT22;39868;53.398;6.564;2023-01-31T05:37:34;8.30;81.30
53962;DHT22;39868;53.398;6.564;2023-01-31T05:40:02;8.30;81.10
53962;DHT22;39868;53.398;6.564;2023-01-31T05:42:29;8.30;81.10
53962;DHT22;39868;53.398;6.564;2023-01-31T05:44:57;8.40;81.10
53962;DHT22;39868;53.398;6.564;2023-01-31T05:47:24;8.30;81.00
53962;DHT22;39868;53.398;6.564;2023-01-31T05:49:51;8.40;81.00
53962;DHT22;39868;53.398;6.564;2023-01-31T05:52:18;8.40;81.10
53962;DHT22;39868;53.398;6.564;2023-01-31T05:54:46;8.40;80.90
53962;DHT22;39868;53.398;6.564;2023-01-31T05:57:13;8.40;80.90
53962;DHT22;39868;53.398;6.564;2023-01-31T05:59:41;8.40;81.40
53962;DHT22;39868;53.398;6.564;2023-01-31T06:02:09;8.40;80.80
53962;DHT22;39868;53.398;6.564;2023-01-31T06:04:39;8.40;80.70
53962;DHT22;39868;53.398;6.564;2023-01-31T06:07:07;8.50;80.80
53962;DHT22;39868;53.398;6.564;2023-01-31T06:09:34;8.50;80.80
53962;DHT22;39868;53.398;6.564;2023-01-31T06:12:05;8.50;80.80
53962;DHT22;39868;53.398;6.564;2023-01-31T06:14:32;8.50;80.90
53962;DHT22;39868;53.398;6.564;2023-01-31T06:16:59;8.50;80.90
53962;DHT22;39868;53.398;6.564;2023-01-31T06:19:27;8.50;80.80
53962;DHT22;39868;53.398;6.564;2023-01-31T06:21:54;8.50;80.80
53962;DHT22;39868;53.398;6.564;2023-01-31T06:24:21;8.50;80.80
53962;DHT22;39868;53.398;6.564;2023-01-31T06:26:49;8.50;80.90
53962;DHT22;39868;53.398;6.564;2023-01-31T06:29:16;8.50;80.80
53962;DHT22;39868;53.398;6.564;2023-01-31T06:31:44;8.50;80.70
53962;DHT22;39868;53.398;6.564;2023-01-31T06:34:11;8.50;80.70
53962;DHT22;39868;53.398;6.564;2023-01-31T06:36:38;8.50;80.60
53962;DHT22;39868;53.398;6.564;2023-01-31T06:39:06;8.60;80.70
53962;DHT22;39868;53.398;6.564;2023-01-31T06:41:33;8.60;80.70
53962;DHT22;39868;53.398;6.564;2023-01-31T06:44:00;8.60;80.70
53962;DHT22;39868;53.398;6.564;2023-01-31T06:46:28;8.60;80.70
53962;DHT22;39868;53.398;6.564;2023-01-31T06:48:56;8.60;80.70
53962;DHT22;39868;53.398;6.564;2023-01-31T06:51:23;8.60;80.70
53962;DHT22;39868;53.398;6.564;2023-01-31T06:53:50;8.60;80.70
53962;DHT22;39868;53.398;6.564;2023-01-31T06:56:19;8.60;80.70
53962;DHT22;39868;53.398;6.564;2023-01-31T06:58:46;8.60;80.80
53962;DHT22;39868;53.398;6.564;2023-01-31T07:01:14;8.60;80.70
53962;DHT22;39868;53.398;6.564;2023-01-31T07:03:41;8.60;80.80
53962;DHT22;39868;53.398;6.564;2023-01-31T07:06:09;8.60;80.80
53962;DHT22;39868;53.398;6.564;2023-01-31T07:08:37;8.60;80.90
53962;DHT22;39868;53.398;6.564;2023-01-31T07:11:04;8.70;81.00
53962;DHT22;39868;53.398;6.564;2023-01-31T07:13:32;8.70;81.20
53962;DHT22;39868;53.398;6.564;2023-01-31T07:15:59;8.70;81.10
53962;DHT22;39868;53.398;6.564;2023-01-31T07:18:27;8.70;81.00
53962;DHT22;39868;53.398;6.564;2023-01-31T07:20:54;8.70;81.00
53962;DHT22;39868;53.398;6.564;2023-01-31T07:23:22;8.80;81.10
53962;DHT22;39868;53.398;6.564;2023-01-31T07:25:49;8.80;81.00
53962;DHT22;39868;53.398;6.564;2023-01-31T07:28:16;8.80;81.00
53962;DHT22;39868;53.398;6.564;2023-01-31T07:30:44;8.80;80.90
53962;DHT22;39868;53.398;6.564;2023-01-31T07:33:12;8.80;80.80
53962;DHT22;39868;53.398;6.564;2023-01-31T07:35:41;8.90;80.80
53962;DHT22;39868;53.398;6.564;2023-01-31T07:38:09;8.90;80.70
53962;DHT22;39868;53.398;6.564;2023-01-31T07:40:37;8.90;80.70
53962;DHT22;39868;53.398;6.564;2023-01-31T07:43:06;8.90;80.60
53962;DHT22;39868;53.398;6.564;2023-01-31T07:45:33;8.90;80.60
53962;DHT22;39868;53.398;6.564;2023-01-31T07:48:01;8.90;80.60
53962;DHT22;39868;53.398;6.564;2023-01-31T07:50:29;9.00;80.50
53962;DHT22;39868;53.398;6.564;2023-01-31T07:52:57;9.00;80.50
53962;DHT22;39868;53.398;6.564;2023-01-31T07:55:25;9.00;80.50
53962;DHT22;39868;53.398;6.564;2023-01-31T07:57:52;9.00;80.40
53962;DHT22;39868;53.398;6.564;2023-01-31T08:00:20;9.00;80.40
53962;DHT22;39868;53.398;6.564;2023-01-31T08:03:25;9.10;80.50
53962;DHT22;39868;53.398;6.564;2023-01-31T08:06:07;9.10;80.50
53962;DHT22;39868;53.398;6.564;2023-01-31T08:08:36;9.10;80.50
53962;DHT22;39868;53.398;6.564;2023-01-31T08:11:04;9.10;80.50
53962;DHT22;39868;53.398;6.564;2023-01-31T08:13:35;9.10;80.50
53962;DHT22;39868;53.398;6.564;2023-01-31T08:16:04;9.10;80.50
53962;DHT22;39868;53.398;6.564;2023-01-31T08:18:32;9.10;80.40
53962;DHT22;39868;53.398;6.564;2023-01-31T08:21:00;9.20;80.50
53962;DHT22;39868;53.398;6.564;2023-01-31T08:23:27;9.20;80.50
53962;DHT22;39868;53.398;6.564;2023-01-31T08:26:20;9.20;80.50
53962;DHT22;39868;53.398;6.564;2023-01-31T08:28:50;9.20;80.60
53962;DHT22;39868;53.398;6.564;2023-01-31T08:31:24;9.30;80.70
53962;DHT22;39868;53.398;6.564;2023-01-31T08:33:52;9.30;81.20
53962;DHT22;39868;53.398;6.564;2023-01-31T08:36:28;9.30;80.60
53962;DHT22;39868;53.398;6.564;2023-01-31T08:38:58;9.30;80.60
53962;DHT22;39868;53.398;6.564;2023-01-31T08:41:27;9.30;80.70
53962;DHT22;39868;53.398;6.564;2023-01-31T08:43:55;9.40;80.80
53962;DHT22;39868;53.398;6.564;2023-01-31T08:46:26;9.40;80.90
53962;DHT22;39868;53.398;6.564;2023-01-31T08:48:57;9.40;80.90
53962;DHT22;39868;53.398;6.564;2023-01-31T08:51:25;9.40;80.90
53962;DHT22;39868;53.398;6.564;2023-01-31T08:53:52;9.50;81.00
53962;DHT22;39868;53.398;6.564;2023-01-31T08:56:20;9.50;81.60
53962;DHT22;39868;53.398;6.564;2023-01-31T08:58:52;9.50;81.00
53962;DHT22;39868;53.398;6.564;2023-01-31T09:01:21;9.60;81.10
53962;DHT22;39868;53.398;6.564;2023-01-31T09:03:49;9.60;81.20
53962;DHT22;39868;53.398;6.564;2023-01-31T09:06:23;9.60;81.10
53962;DHT22;39868;53.398;6.564;2023-01-31T09:08:53;9.60;81.20
53962;DHT22;39868;53.398;6.564;2023-01-31T09:11:20;9.60;81.30
53962;DHT22;39868;53.398;6.564;2023-01-31T09:13:49;9.70;81.30
53962;DHT22;39868;53.398;6.564;2023-01-31T09:16:18;9.70;81.20
53962;DHT22;39868;53.398;6.564;2023-01-31T09:18:46;9.70;81.10
53962;DHT22;39868;53.398;6.564;2023-01-31T09:21:19;9.70;81.10
53962;DHT22;39868;53.398;6.564;2023-01-31T09:23:48;9.70;81.10
53962;DHT22;39868;53.398;6.564;2023-01-31T09:26:15;9.70;81.00
53962;DHT22;39868;53.398;6.564;2023-01-31T09:28:43;9.70;81.00
53962;DHT22;39868;53.398;6.564;2023-01-31T09:31:13;9.80;81.00
53962;DHT22;39868;53.398;6.564;2023-01-31T09:33:41;9.80;81.10
53962;DHT22;39868;53.398;6.564;2023-01-31T09:36:14;9.70;81.10
53962;DHT22;39868;53.398;6.564;2023-01-31T09:38:42;9.70;81.10
53962;DHT22;39868;53.398;6.564;2023-01-31T09:41:38;9.80;81.10
53962;DHT22;39868;53.398;6.564;2023-01-31T09:49:32;9.70;81.20
53962;DHT22;39868;53.398;6.564;2023-01-31T09:52:02;9.80;81.30
53962;DHT22;39868;53.398;6.564;2023-01-31T09:54:36;9.80;81.40
53962;DHT22;39868;53.398;6.564;2023-01-31T10:05:39;9.80;81.50
53962;DHT22;39868;53.398;6.564;2023-01-31T10:11:02;9.80;81.80
53962;DHT22;39868;53.398;6.564;2023-01-31T10:13:35;9.80;81.90
53962;DHT22;39868;53.398;6.564;2023-01-31T10:16:45;9.80;82.00
53962;DHT22;39868;53.398;6.564;2023-01-31T10:19:21;9.80;82.10
53962;DHT22;39868;53.398;6.564;2023-01-31T10:21:53;9.80;82.00
53962;DHT22;39868;53.398;6.564;2023-01-31T10:24:57;9.80;82.20
53962;DHT22;39868;53.398;6.564;2023-01-31T10:27:40;9.80;82.10
53962;DHT22;39868;53.398;6.564;2023-01-31T10:30:17;9.80;82.40
53962;DHT22;39868;53.398;6.564;2023-01-31T10:32:52;9.80;82.50
53962;DHT22;39868;53.398;6.564;2023-01-31T10:35:30;9.80;82.50
53962;DHT22;39868;53.398;6.564;2023-01-31T10:38:25;9.90;82.50
53962;DHT22;39868;53.398;6.564;2023-01-31T10:41:00;9.90;82.60
53962;DHT22;39868;53.398;6.564;2023-01-31T10:43:38;9.90;82.60
53962;DHT22;39868;53.398;6.564;2023-01-31T10:46:10;9.90;82.70
53962;DHT22;39868;53.398;6.564;2023-01-31T10:48:39;9.90;82.60
53962;DHT22;39868;53.398;6.564;2023-01-31T10:51:26;9.90;82.70
53962;DHT22;39868;53.398;6.564;2023-01-31T10:56:52;10.00;82.70
53962;DHT22;39868;53.398;6.564;2023-01-31T10:59:32;10.00;82.70
53962;DHT22;39868;53.398;6.564;2023-01-31T11:02:01;10.00;82.70
53962;DHT22;39868;53.398;6.564;2023-01-31T11:04:40;10.00;82.60
53962;DHT22;39868;53.398;6.564;2023-01-31T11:07:08;10.10;83.10
53962;DHT22;39868;53.398;6.564;2023-01-31T11:09:39;10.10;82.50
53962;DHT22;39868;53.398;6.564;2023-01-31T11:12:07;10.10;82.40
53962;DHT22;39868;53.398;6.564;2023-01-31T11:14:35;10.20;82.40
53962;DHT22;39868;53.398;6.564;2023-01-31T11:19:51;10.30;82.30
53962;DHT22;39868;53.398;6.564;2023-01-31T11:24:54;10.30;82.00
53962;DHT22;39868;53.398;6.564;2023-01-31T11:27:26;10.30;81.90
53962;DHT22;39868;53.398;6.564;2023-01-31T11:29:55;10.30;81.80
53962;DHT22;39868;53.398;6.564;2023-01-31T11:32:33;10.30;81.80
53962;DHT22;39868;53.398;6.564;2023-01-31T11:35:05;10.30;81.70
53962;DHT22;39868;53.398;6.564;2023-01-31T11:40:39;10.40;81.60
53962;DHT22;39868;53.398;6.564;2023-01-31T11:45:53;10.50;81.80
53962;DHT22;39868;53.398;6.564;2023-01-31T11:48:24;10.60;81.90
53962;DHT22;39868;53.398;6.564;2023-01-31T11:50:57;10.60;82.00
53962;DHT22;39868;53.398;6.564;2023-01-31T11:56:16;10.70;82.00
53962;DHT22;39868;53.398;6.564;2023-01-31T11:58:47;10.80;81.60
53962;DHT22;39868;53.398;6.564;2023-01-31T12:01:18;10.80;81.30
53962;DHT22;39868;53.398;6.564;2023-01-31T12:03:50;10.90;81.10
53962;DHT22;39868;53.398;6.564;2023-01-31T12:06:36;10.90;81.00
53962;DHT22;39868;53.398;6.564;2023-01-31T12:09:21;10.90;80.80
53962;DHT22;39868;53.398;6.564;2023-01-31T12:12:00;11.00;81.40
53962;DHT22;39868;53.398;6.564;2023-01-31T12:14:41;11.00;80.80
53962;DHT22;39868;53.398;6.564;2023-01-31T12:17:12;11.10;80.70
53962;DHT22;39868;53.398;6.564;2023-01-31T12:20:09;11.10;80.80
53962;DHT22;39868;53.398;6.564;2023-01-31T12:26:13;11.20;80.60
53962;DHT22;39868;53.398;6.564;2023-01-31T12:37:19;11.30;80.20
53962;DHT22;39868;53.398;6.564;2023-01-31T12:40:06;11.30;80.10
53962;DHT22;39868;53.398;6.564;2023-01-31T12:54:10;11.50;79.90
53962;DHT22;39868;53.398;6.564;2023-01-31T12:56:58;11.50;79.70
53962;DHT22;39868;53.398;6.564;2023-01-31T12:59:37;11.60;79.60
53962;DHT22;39868;53.398;6.564;2023-01-31T13:05:27;11.60;79.50
53962;DHT22;39868;53.398;6.564;2023-01-31T13:08:14;11.70;79.30
53962;DHT22;39868;53.398;6.564;2023-01-31T13:10:47;11.70;79.10
53962;DHT22;39868;53.398;6.564;2023-01-31T13:13:31;11.70;79.10
53962;DHT22;39868;53.398;6.564;2023-01-31T13:16:04;11.70;79.00
53962;DHT22;39868;53.398;6.564;2023-01-31T13:18:35;11.70;78.90
53962;DHT22;39868;53.398;6.564;2023-01-31T13:21:06;11.70;78.90
53962;DHT22;39868;53.398;6.564;2023-01-31T13:23:42;11.70;78.60
53962;DHT22;39868;53.398;6.564;2023-01-31T13:26:18;11.70;78.30
53962;DHT22;39868;53.398;6.564;2023-01-31T13:29:10;11.70;78.30
53962;DHT22;39868;53.398;6.564;2023-01-31T13:32:03;11.70;78.30
53962;DHT22;39868;53.398;6.564;2023-01-31T13:34:56;11.70;78.30
53962;DHT22;39868;53.398;6.564;2023-01-31T13:37:26;11.70;78.30
53962;DHT22;39868;53.398;6.564;2023-01-31T13:40:03;11.70;78.20
53962;DHT22;39868;53.398;6.564;2023-01-31T13:42:33;11.70;78.00
53962;DHT22;39868;53.398;6.564;2023-01-31T13:45:04;11.70;78.10
53962;DHT22;39868;53.398;6.564;2023-01-31T13:47:57;11.70;78.30
53962;DHT22;39868;53.398;6.564;2023-01-31T13:50:31;11.80;78.30
53962;DHT22;39868;53.398;6.564;2023-01-31T13:53:01;11.80;78.10
53962;DHT22;39868;53.398;6.564;2023-01-31T13:55:38;11.80;77.50
53962;DHT22;39868;53.398;6.564;2023-01-31T13:58:17;11.90;77.30
53962;DHT22;39868;53.398;6.564;2023-01-31T14:00:48;11.90;77.20
53962;DHT22;39868;53.398;6.564;2023-01-31T14:03:19;11.90;77.10
53962;DHT22;39868;53.398;6.564;2023-01-31T14:06:00;12.00;76.60
53962;DHT22;39868;53.398;6.564;2023-01-31T14:13:47;12.10;76.00
53962;DHT22;39868;53.398;6.564;2023-01-31T14:19:04;12.00;75.60
53962;DHT22;39868;53.398;6.564;2023-01-31T14:21:53;11.90;75.50
53962;DHT22;39868;53.398;6.564;2023-01-31T14:27:19;11.80;74.90
53962;DHT22;39868;53.398;6.564;2023-01-31T14:32:34;11.70;75.00
53962;DHT22;39868;53.398;6.564;2023-01-31T14:57:55;11.30;76.40
53962;DHT22;39868;53.398;6.564;2023-01-31T15:00:27;11.20;76.30
53962;DHT22;39868;53.398;6.564;2023-01-31T15:03:08;11.20;76.20
53962;DHT22;39868;53.398;6.564;2023-01-31T15:05:44;11.20;76.20
53962;DHT22;39868;53.398;6.564;2023-01-31T15:13:48;11.20;75.40
53962;DHT22;39868;53.398;6.564;2023-01-31T15:16:31;11.20;75.20
53962;DHT22;39868;53.398;6.564;2023-01-31T15:19:06;11.10;75.10
53962;DHT22;39868;53.398;6.564;2023-01-31T15:21:41;11.10;74.80
53962;DHT22;39868;53.398;6.564;2023-01-31T15:24:20;11.10;74.60
53962;DHT22;39868;53.398;6.564;2023-01-31T15:26:51;11.10;74.60
53962;DHT22;39868;53.398;6.564;2023-01-31T15:29:26;11.00;74.90
53962;DHT22;39868;53.398;6.564;2023-01-31T15:32:05;11.00;74.80
53962;DHT22;39868;53.398;6.564;2023-01-31T15:34:43;11.00;74.60
53962;DHT22;39868;53.398;6.564;2023-01-31T15:37:14;11.00;74.60
53962;DHT22;39868;53.398;6.564;2023-01-31T15:39:53;11.00;74.70
53962;DHT22;39868;53.398;6.564;2023-01-31T15:42:26;11.00;74.80
53962;DHT22;39868;53.398;6.564;2023-01-31T15:45:22;10.90;74.60
53962;DHT22;39868;53.398;6.564;2023-01-31T15:50:21;10.80;74.60
53962;DHT22;39868;53.398;6.564;2023-01-31T15:53:04;10.70;74.60
53962;DHT22;39868;53.398;6.564;2023-01-31T15:55:34;10.70;74.40
53962;DHT22;39868;53.398;6.564;2023-01-31T15:58:02;10.60;74.30
53962;DHT22;39868;53.398;6.564;2023-01-31T16:00:36;10.50;74.00
53962;DHT22;39868;53.398;6.564;2023-01-31T16:03:06;10.50;73.90
53962;DHT22;39868;53.398;6.564;2023-01-31T16:05:38;10.40;73.90
53962;DHT22;39868;53.398;6.564;2023-01-31T16:10:55;10.30;73.30
53962;DHT22;39868;53.398;6.564;2023-01-31T16:13:23;10.20;73.10
53962;DHT22;39868;53.398;6.564;2023-01-31T16:15:52;10.20;72.70
53962;DHT22;39868;53.398;6.564;2023-01-31T16:18:20;10.10;71.70
53962;DHT22;39868;53.398;6.564;2023-01-31T16:20:53;10.10;71.90
53962;DHT22;39868;53.398;6.564;2023-01-31T16:23:30;10.00;72.20
53962;DHT22;39868;53.398;6.564;2023-01-31T16:26:14;10.00;72.60
53962;DHT22;39868;53.398;6.564;2023-01-31T16:28:49;10.00;72.80
53962;DHT22;39868;53.398;6.564;2023-01-31T16:31:20;9.90;72.40
53962;DHT22;39868;53.398;6.564;2023-01-31T16:33:57;9.90;72.40
53962;DHT22;39868;53.398;6.564;2023-01-31T16:36:30;9.80;72.10
53962;DHT22;39868;53.398;6.564;2023-01-31T16:39:05;9.80;72.20
53962;DHT22;39868;53.398;6.564;2023-01-31T16:44:11;9.70;72.40
53962;DHT22;39868;53.398;6.564;2023-01-31T16:46:42;9.60;72.40
53962;DHT22;39868;53.398;6.564;2023-01-31T16:49:23;9.60;72.50
53962;DHT22;39868;53.398;6.564;2023-01-31T16:52:07;9.60;72.50
53962;DHT22;39868;53.398;6.564;2023-01-31T16:54:50;9.60;72.70
53962;DHT22;39868;53.398;6.564;2023-01-31T16:57:35;9.50;72.70
53962;DHT22;39868;53.398;6.564;2023-01-31T17:00:20;9.50;72.80
53962;DHT22;39868;53.398;6.564;2023-01-31T17:02:55;9.40;72.70
53962;DHT22;39868;53.398;6.564;2023-01-31T17:05:26;9.40;73.60
53962;DHT22;39868;53.398;6.564;2023-01-31T17:07:56;9.40;73.00
53962;DHT22;39868;53.398;6.564;2023-01-31T17:10:29;9.30;73.00
53962;DHT22;39868;53.398;6.564;2023-01-31T17:15:39;9.30;73.00
53962;DHT22;39868;53.398;6.564;2023-01-31T17:18:09;9.30;73.00
53962;DHT22;39868;53.398;6.564;2023-01-31T17:20:40;9.30;73.20
53962;DHT22;39868;53.398;6.564;2023-01-31T17:23:11;9.30;73.30
53962;DHT22;39868;53.398;6.564;2023-01-31T17:25:41;9.30;73.40
53962;DHT22;39868;53.398;6.564;2023-01-31T17:28:10;9.30;73.50
53962;DHT22;39868;53.398;6.564;2023-01-31T17:30:41;9.30;73.70
53962;DHT22;39868;53.398;6.564;2023-01-31T17:33:12;9.30;73.80
53962;DHT22;39868;53.398;6.564;2023-01-31T17:35:44;9.30;73.90
53962;DHT22;39868;53.398;6.564;2023-01-31T17:38:13;9.30;73.90
53962;DHT22;39868;53.398;6.564;2023-01-31T17:40:41;9.30;74.00
53962;DHT22;39868;53.398;6.564;2023-01-31T17:43:15;9.30;74.10
53962;DHT22;39868;53.398;6.564;2023-01-31T17:45:43;9.30;74.00
53962;DHT22;39868;53.398;6.564;2023-01-31T17:48:11;9.30;74.00
53962;DHT22;39868;53.398;6.564;2023-01-31T17:50:46;9.30;73.90
53962;DHT22;39868;53.398;6.564;2023-01-31T17:53:14;9.30;73.90
53962;DHT22;39868;53.398;6.564;2023-01-31T17:55:42;9.30;73.90
53962;DHT22;39868;53.398;6.564;2023-01-31T17:58:12;9.20;73.70
53962;DHT22;39868;53.398;6.564;2023-01-31T18:00:39;9.20;73.60
53962;DHT22;39868;53.398;6.564;2023-01-31T18:03:10;9.20;73.60
53962;DHT22;39868;53.398;6.564;2023-01-31T18:05:41;9.20;73.50
53962;DHT22;39868;53.398;6.564;2023-01-31T18:08:10;9.30;73.50
53962;DHT22;39868;53.398;6.564;2023-01-31T18:10:39;9.20;73.50
53962;DHT22;39868;53.398;6.564;2023-01-31T18:13:07;9.20;73.50
53962;DHT22;39868;53.398;6.564;2023-01-31T18:15:35;9.20;73.50
53962;DHT22;39868;53.398;6.564;2023-01-31T18:18:03;9.20;73.50
53962;DHT22;39868;53.398;6.564;2023-01-31T18:20:37;9.20;73.30
53962;DHT22;39868;53.398;6.564;2023-01-31T18:23:05;9.20;73.90
53962;DHT22;39868;53.398;6.564;2023-01-31T18:25:33;9.20;73.40
53962;DHT22;39868;53.398;6.564;2023-01-31T18:28:01;9.10;73.30
53962;DHT22;39868;53.398;6.564;2023-01-31T18:30:30;9.20;73.30
53962;DHT22;39868;53.398;6.564;2023-01-31T18:32:57;9.20;73.20
53962;DHT22;39868;53.398;6.564;2023-01-31T18:35:26;9.20;73.20
53962;DHT22;39868;53.398;6.564;2023-01-31T18:37:53;9.20;73.20
53962;DHT22;39868;53.398;6.564;2023-01-31T18:40:22;9.20;73.30
53962;DHT22;39868;53.398;6.564;2023-01-31T18:42:53;9.20;73.30
53962;DHT22;39868;53.398;6.564;2023-01-31T18:45:21;9.20;73.20